createdAt,value
2023-05-02T05:08:54.233Z,8.90
2023-05-02T05:11:23.666Z,9.00
2023-05-02T05:13:52.833Z,9.10
2023-05-02T05:16:22.991Z,9.20
2023-05-02T05:18:54.318Z,9.20
2023-05-02T05:21:23.592Z,9.40
2023-05-02T05:23:56.021Z,9.50
2023-05-02T05:26:28.743Z,9.60
2023-05-02T05:28:58.408Z,9.70
2023-05-02T05:31:30.662Z,9.80
2023-05-02T05:34:02.584Z,9.80
2023-05-02T05:36:32.918Z,9.90
2023-05-02T05:39:06.075Z,9.90
2023-05-02T05:41:38.539Z,9.90
2023-05-02T05:44:10.955Z,9.90
2023-05-02T05:46:40.784Z,9.80
2023-05-02T05:49:12.838Z,9.80
2023-05-02T05:55:59.457Z,9.80
2023-05-02T05:58:28.815Z,9.80
2023-05-02T06:00:58.754Z,9.90
2023-05-02T06:03:37.477Z,9.90
2023-05-02T06:06:09.602Z,9.90
2023-05-02T06:08:38.829Z,9.90
2023-05-02T06:11:12.517Z,10.10
2023-05-02T06:13:41.837Z,10.10
2023-05-02T06:16:10.976Z,10.20
2023-05-02T06:18:40.230Z,10.30
2023-05-02T06:21:09.759Z,10.40
2023-05-02T06:23:39.481Z,10.60
2023-05-02T06:26:10.484Z,10.60
2023-05-02T06:28:41.084Z,10.70
2023-05-02T06:31:10.376Z,10.80
2023-05-02T06:33:39.600Z,10.80
2023-05-02T06:36:09.036Z,10.80
2023-05-02T06:38:41.065Z,10.90
2023-05-02T06:41:17.854Z,10.90
2023-05-02T06:43:48.834Z,11.00
2023-05-02T06:46:19.026Z,11.00
2023-05-02T06:48:48.293Z,11.00
2023-05-02T06:51:17.871Z,11.20
2023-05-02T06:53:46.907Z,11.40
2023-05-02T06:56:15.950Z,11.50
2023-05-02T06:58:44.999Z,11.70
2023-05-02T07:01:15.753Z,11.70
2023-05-02T07:03:45.038Z,11.80
2023-05-02T07:06:14.538Z,11.80
2023-05-02T07:08:43.750Z,11.80
2023-05-02T07:11:12.956Z,11.90
2023-05-02T07:13:42.360Z,11.80
2023-05-02T07:16:11.454Z,11.80
2023-05-02T07:18:42.648Z,11.80
2023-05-02T07:21:11.853Z,11.80
2023-05-02T07:23:40.989Z,11.90
2023-05-02T07:26:10.192Z,11.90
2023-05-02T07:28:39.435Z,11.90
2023-05-02T07:31:08.625Z,11.90
2023-05-02T07:33:37.656Z,11.90
2023-05-02T07:36:08.748Z,11.90
2023-05-02T07:38:37.953Z,12.00
2023-05-02T07:41:15.953Z,12.10
2023-05-02T07:46:31.883Z,12.60
2023-05-02T07:49:01.417Z,12.80
2023-05-02T07:51:32.802Z,13.00
2023-05-02T07:54:02.397Z,13.10
2023-05-02T07:56:31.958Z,13.30
2023-05-02T07:59:07.283Z,13.40
2023-05-02T08:01:36.072Z,13.50
2023-05-02T08:04:05.964Z,13.50
2023-05-02T08:06:37.105Z,13.60
2023-05-02T08:09:06.254Z,13.60
2023-05-02T08:11:35.271Z,13.50
2023-05-02T08:14:04.647Z,13.80
2023-05-02T08:16:34.290Z,13.90
2023-05-02T08:19:04.119Z,13.90
2023-05-02T08:21:33.802Z,13.90
2023-05-02T08:24:04.631Z,13.90
2023-05-02T08:26:33.958Z,13.90
2023-05-02T08:29:04.650Z,13.90
2023-05-02T08:31:34.490Z,14.20
2023-05-02T08:34:03.595Z,14.00
2023-05-02T08:36:32.599Z,13.90
2023-05-02T08:39:01.777Z,13.80
2023-05-02T08:41:32.589Z,13.70
2023-05-02T08:44:02.755Z,13.70
2023-05-02T08:46:33.630Z,13.90
2023-05-02T08:49:04.069Z,14.20
2023-05-02T08:51:34.124Z,14.80
2023-05-02T08:54:04.686Z,15.20
2023-05-02T08:56:35.684Z,15.70
2023-05-02T08:59:04.826Z,16.10
2023-05-02T09:01:37.487Z,16.40
2023-05-02T09:04:06.832Z,16.30
2023-05-02T09:06:36.448Z,16.30
2023-05-02T09:09:05.619Z,16.30
2023-05-02T09:11:35.953Z,16.30
2023-05-02T09:14:16.228Z,16.40
2023-05-02T09:16:45.627Z,16.70
2023-05-02T09:19:26.067Z,16.70
2023-05-02T09:22:03.239Z,16.90
2023-05-02T09:24:32.939Z,16.90
2023-05-02T09:27:04.582Z,16.40
2023-05-02T09:29:39.064Z,16.50
2023-05-02T09:32:09.090Z,16.50
2023-05-02T09:34:39.561Z,16.20
2023-05-02T09:37:09.089Z,16.00
2023-05-02T09:39:38.063Z,15.80
2023-05-02T09:42:08.672Z,15.60
2023-05-02T09:44:41.106Z,15.80
2023-05-02T09:47:10.488Z,15.80
2023-05-02T09:49:45.287Z,16.10
2023-05-02T09:52:16.182Z,16.50
2023-05-02T09:54:47.174Z,17.00
2023-05-02T10:00:11.785Z,17.10
2023-05-02T10:02:42.386Z,16.80
2023-05-02T10:05:13.674Z,16.70
2023-05-02T10:07:42.953Z,16.60
2023-05-02T10:10:16.237Z,16.70
2023-05-02T10:12:48.958Z,16.70
2023-05-02T10:15:21.286Z,16.50
2023-05-02T10:17:52.627Z,16.50
2023-05-02T10:20:26.345Z,16.10
2023-05-02T10:22:56.928Z,16.00
2023-05-02T10:25:26.401Z,16.20
2023-05-02T10:27:59.196Z,16.10
2023-05-02T10:30:28.346Z,16.30
2023-05-02T10:33:01.622Z,16.90
2023-05-02T10:35:31.978Z,17.60
2023-05-02T10:38:02.792Z,17.80
2023-05-02T10:40:32.965Z,17.60
2023-05-02T10:43:05.951Z,17.40
2023-05-02T10:45:35.827Z,18.00
2023-05-02T10:48:22.761Z,18.10
2023-05-02T10:50:53.279Z,18.60
2023-05-02T10:53:26.476Z,18.90
2023-05-02T10:56:15.742Z,19.40
2023-05-02T10:58:47.586Z,19.40
2023-05-02T11:01:41.994Z,19.00
2023-05-02T11:04:12.362Z,18.70
2023-05-02T11:07:19.237Z,19.00
2023-05-02T11:09:48.505Z,18.80
2023-05-02T11:12:48.311Z,18.70
2023-05-02T11:16:00.634Z,19.10
2023-05-02T11:19:02.526Z,19.20
2023-05-02T11:21:33.677Z,19.30
2023-05-02T11:24:39.242Z,19.50
2023-05-02T11:27:41.788Z,19.20
2023-05-02T11:30:12.969Z,19.60
2023-05-02T11:33:17.516Z,19.60
2023-05-02T11:35:50.439Z,19.00
2023-05-02T11:38:23.604Z,18.90
2023-05-02T11:40:58.275Z,19.50
2023-05-02T11:43:31.503Z,20.10
2023-05-02T11:46:03.092Z,20.20
2023-05-02T11:48:34.437Z,20.30
2023-05-02T11:51:05.440Z,19.90
2023-05-02T11:53:35.380Z,19.90
2023-05-02T11:56:06.241Z,19.70
2023-05-02T11:58:35.410Z,19.20
2023-05-02T12:01:14.740Z,18.80
2023-05-02T12:03:46.398Z,18.80
2023-05-02T12:06:19.478Z,19.20
2023-05-02T12:08:49.586Z,19.50
2023-05-02T12:11:18.831Z,19.30
2023-05-02T12:13:49.216Z,19.40
2023-05-02T12:16:18.793Z,19.20
2023-05-02T12:18:50.189Z,18.80
2023-05-02T12:21:23.078Z,18.60
2023-05-02T12:23:52.954Z,18.50
2023-05-02T12:26:25.654Z,18.50
2023-05-02T12:28:56.032Z,19.00
2023-05-02T12:31:25.308Z,19.10
2023-05-02T12:33:58.135Z,19.00
2023-05-02T12:36:47.905Z,18.80
2023-05-02T12:39:45.732Z,18.80
2023-05-02T12:42:15.567Z,18.70
2023-05-02T12:44:45.473Z,18.50
2023-05-02T12:47:15.614Z,18.60
2023-05-02T12:49:52.678Z,18.70
2023-05-02T12:52:23.174Z,18.60
2023-05-02T12:54:52.570Z,18.30
2023-05-02T12:57:26.168Z,18.20
2023-05-02T12:59:55.838Z,18.10
2023-05-02T13:02:25.016Z,17.80
2023-05-02T13:04:55.615Z,17.60
2023-05-02T13:07:24.860Z,17.40
2023-05-02T13:09:54.075Z,17.30
2023-05-02T13:12:31.682Z,17.60
2023-05-02T13:15:01.301Z,17.80
2023-05-02T13:17:40.064Z,18.00
2023-05-02T13:20:12.072Z,18.50
2023-05-02T13:22:41.411Z,18.50
2023-05-02T13:25:11.492Z,18.70
2023-05-02T13:27:41.636Z,19.00
2023-05-02T13:30:12.794Z,19.10
2023-05-02T13:32:42.266Z,19.30
2023-05-02T13:35:16.125Z,19.20
2023-05-02T13:37:45.354Z,19.40
2023-05-02T13:40:14.869Z,19.20
2023-05-02T13:42:43.987Z,18.90
2023-05-02T13:45:14.890Z,18.90
2023-05-02T13:47:44.924Z,19.10
2023-05-02T13:50:15.827Z,19.10
2023-05-02T13:52:47.005Z,18.90
2023-05-02T13:55:17.932Z,18.60
2023-05-02T13:57:47.226Z,18.30
2023-05-02T14:00:17.277Z,17.90
2023-05-02T14:02:48.922Z,17.90
2023-05-02T14:05:19.650Z,17.90
2023-05-02T14:07:48.742Z,18.00
2023-05-02T14:10:19.237Z,18.00
2023-05-02T14:12:53.512Z,18.00
2023-05-02T14:15:22.728Z,18.30
2023-05-02T14:17:52.573Z,18.50
2023-05-02T14:20:23.793Z,18.70
2023-05-02T14:23:13.351Z,19.00
2023-05-02T14:25:51.879Z,19.20
2023-05-02T14:28:21.269Z,18.90
2023-05-02T14:30:50.580Z,18.30
2023-05-02T14:33:19.910Z,17.90
2023-05-02T14:35:51.280Z,17.60
2023-05-02T14:38:20.422Z,17.60
2023-05-02T14:40:49.551Z,17.60
2023-05-02T14:43:18.677Z,17.70
2023-05-02T14:45:48.007Z,17.70
2023-05-02T14:48:18.006Z,17.70
2023-05-02T14:50:50.199Z,17.60
2023-05-02T14:53:23.162Z,17.60
2023-05-02T14:55:52.434Z,17.60
2023-05-02T14:58:21.829Z,17.60
2023-05-02T15:00:51.173Z,17.60
2023-05-02T15:03:20.500Z,17.60
2023-05-02T15:05:49.926Z,17.70
2023-05-02T15:08:20.387Z,17.90
2023-05-02T15:10:49.396Z,18.00
2023-05-02T15:13:18.500Z,17.90
2023-05-02T15:15:49.093Z,17.70
2023-05-02T15:18:18.411Z,17.90
2023-05-02T15:20:47.716Z,18.20
2023-05-02T15:23:17.353Z,18.50
2023-05-02T15:25:48.352Z,18.70
2023-05-02T15:28:17.628Z,18.70
2023-05-02T15:30:47.120Z,18.60
2023-05-02T15:33:16.554Z,18.60
2023-05-02T15:35:56.566Z,18.70
2023-05-02T15:38:26.710Z,18.80
2023-05-02T15:40:58.284Z,19.00
2023-05-02T15:43:28.142Z,18.80
2023-05-02T15:45:59.330Z,18.80
2023-05-02T15:48:30.167Z,18.90
2023-05-02T15:50:59.532Z,19.00
2023-05-02T15:53:28.676Z,18.80
2023-05-02T15:55:59.350Z,18.80
2023-05-02T15:58:28.370Z,18.60
2023-05-02T16:00:58.631Z,18.60
2023-05-02T16:03:28.046Z,18.70
2023-05-02T16:05:59.240Z,18.70
2023-05-02T16:08:28.786Z,18.70
2023-05-02T16:11:01.518Z,18.70
2023-05-02T16:13:30.830Z,18.60
2023-05-02T16:15:59.989Z,18.60
2023-05-02T16:18:29.671Z,18.30
2023-05-02T16:20:59.726Z,18.40
2023-05-02T16:23:28.831Z,18.30
2023-05-02T16:26:02.553Z,18.30
2023-05-02T16:28:31.621Z,18.40
2023-05-02T16:31:00.840Z,18.30
2023-05-02T16:33:30.189Z,18.30
2023-05-02T16:36:04.028Z,18.20
2023-05-02T16:38:33.790Z,18.10
2023-05-02T16:41:07.713Z,18.00
2023-05-02T16:43:37.810Z,17.90
2023-05-02T16:46:09.232Z,17.90
2023-05-02T16:48:38.487Z,17.80
2023-05-02T16:51:07.997Z,17.60
2023-05-02T16:53:37.080Z,17.50
2023-05-02T16:56:08.986Z,17.30
2023-05-02T16:58:38.179Z,17.10
2023-05-02T17:01:07.823Z,16.90
2023-05-02T17:03:36.912Z,16.80
2023-05-02T17:06:06.318Z,16.70
2023-05-02T17:08:35.601Z,16.70
2023-05-02T17:11:05.712Z,16.50
2023-05-02T17:13:37.118Z,16.30
2023-05-02T17:16:08.632Z,16.00
2023-05-02T17:18:38.236Z,15.90
2023-05-02T17:21:08.778Z,15.70
2023-05-02T17:23:37.948Z,15.40
2023-05-02T17:26:14.488Z,15.30
2023-05-02T17:28:51.632Z,15.10
2023-05-02T17:31:20.933Z,15.10
2023-05-02T17:33:53.316Z,14.90
2023-05-02T17:36:23.587Z,14.80
2023-05-02T17:38:53.648Z,14.80
2023-05-02T17:41:22.913Z,14.70
2023-05-02T17:43:58.281Z,14.50
2023-05-02T17:46:27.673Z,14.30
2023-05-02T17:48:57.884Z,14.20
2023-05-02T17:51:27.121Z,14.20
2023-05-02T17:53:58.667Z,14.40
2023-05-02T17:56:28.751Z,14.50
2023-05-02T17:59:00.714Z,14.50
2023-05-02T18:01:30.579Z,14.30
2023-05-02T18:04:00.476Z,14.20
2023-05-02T18:06:29.764Z,14.10
2023-05-02T18:08:59.679Z,13.90
2023-05-02T18:11:40.428Z,13.90
2023-05-02T18:14:11.075Z,13.70
2023-05-02T18:16:41.948Z,13.80
2023-05-02T18:19:11.358Z,13.60
2023-05-02T18:21:40.355Z,13.50
2023-05-02T18:24:09.714Z,13.40
2023-05-02T18:26:39.207Z,13.20
2023-05-02T18:29:09.913Z,13.00
2023-05-02T18:31:40.502Z,12.80
2023-05-02T18:34:09.915Z,12.80
2023-05-02T18:36:39.438Z,12.70
2023-05-02T18:39:08.508Z,12.70
2023-05-02T18:41:39.599Z,12.60
2023-05-02T18:44:11.758Z,12.50
2023-05-02T18:46:40.954Z,12.40
2023-05-02T18:49:12.362Z,12.40
2023-05-02T18:51:41.437Z,12.20
2023-05-02T18:54:10.499Z,12.10
2023-05-02T18:56:39.551Z,11.90
2023-05-02T18:59:10.305Z,11.90
2023-05-02T19:01:39.489Z,11.80
2023-05-02T19:04:08.770Z,11.70
2023-05-02T19:06:38.044Z,11.70
2023-05-02T19:09:07.760Z,11.50
2023-05-02T19:11:36.882Z,11.50
2023-05-02T19:14:06.026Z,11.30
2023-05-02T19:16:38.360Z,11.20
2023-05-02T19:19:08.590Z,11.10
2023-05-02T19:21:38.037Z,11.10
2023-05-02T19:24:07.593Z,11.00
2023-05-02T19:26:36.719Z,10.90
2023-05-02T19:29:06.029Z,10.80
2023-05-02T19:31:36.675Z,10.70
2023-05-02T19:34:05.789Z,10.60
2023-05-02T19:36:34.905Z,10.50
2023-05-02T19:39:04.472Z,10.40
2023-05-02T19:41:33.516Z,10.30
2023-05-02T19:44:02.600Z,10.20
2023-05-02T19:46:31.830Z,10.20
2023-05-02T19:49:02.194Z,10.10
2023-05-02T19:51:33.484Z,10.00
2023-05-02T19:54:02.516Z,9.90
2023-05-02T19:56:31.964Z,9.80
2023-05-02T19:59:01.563Z,9.70
2023-05-02T20:01:31.571Z,9.60
2023-05-02T20:04:02.351Z,9.60
2023-05-02T20:06:32.440Z,9.60
2023-05-02T20:09:01.612Z,9.50
2023-05-02T20:11:31.154Z,9.50
2023-05-02T20:14:00.295Z,9.60
2023-05-02T20:16:31.571Z,9.50
2023-05-02T20:19:02.314Z,9.30
2023-05-02T20:21:31.554Z,9.10
2023-05-02T20:24:00.555Z,9.00
2023-05-02T20:26:31.500Z,9.10
2023-05-02T20:29:00.478Z,9.20
2023-05-02T20:31:32.813Z,9.20
2023-05-02T20:34:07.255Z,9.10
2023-05-02T20:36:40.083Z,9.00
2023-05-02T20:39:12.469Z,8.80
2023-05-02T20:41:45.930Z,8.70
2023-05-02T20:44:19.138Z,8.80
2023-05-02T20:46:52.026Z,8.70
2023-05-02T20:49:25.994Z,8.60
2023-05-02T20:51:57.357Z,8.60
2023-05-02T20:54:28.311Z,8.50
2023-05-02T20:56:59.551Z,8.50
2023-05-02T20:59:30.428Z,8.50
2023-05-02T21:02:02.419Z,8.50
2023-05-02T21:04:34.823Z,8.40
2023-05-02T21:07:07.581Z,8.40
2023-05-02T21:09:37.068Z,8.60
2023-05-02T21:12:07.759Z,8.50
2023-05-02T21:14:37.174Z,8.40
2023-05-02T21:17:06.903Z,8.30
2023-05-02T21:19:38.153Z,8.30
2023-05-02T21:22:07.402Z,8.20
2023-05-02T21:24:36.711Z,8.20
2023-05-02T21:27:06.141Z,8.10
2023-05-02T21:29:35.381Z,8.10
2023-05-02T21:32:04.429Z,8.00
2023-05-02T21:34:33.899Z,8.00
2023-05-02T21:37:04.268Z,8.00
2023-05-02T21:39:33.528Z,8.10
2023-05-02T21:42:02.458Z,8.10
2023-05-02T21:44:31.306Z,8.00
2023-05-02T21:47:00.525Z,7.90
2023-05-02T21:49:31.551Z,7.80
2023-05-02T21:52:00.511Z,8.00
2023-05-02T21:54:30.872Z,7.80
2023-05-02T21:57:00.622Z,7.80
2023-05-02T21:59:29.623Z,7.70
2023-05-02T22:01:58.829Z,7.60
2023-05-02T22:04:27.951Z,7.60
2023-05-02T22:06:56.957Z,7.50
2023-05-02T22:09:26.382Z,7.50
2023-05-02T22:11:57.059Z,7.60
2023-05-02T22:14:33.935Z,7.50
2023-05-02T22:17:10.391Z,7.50
2023-05-02T22:19:39.423Z,7.50
2023-05-02T22:22:08.396Z,7.50
2023-05-02T22:24:37.413Z,7.50
2023-05-02T22:27:08.297Z,7.40
2023-05-02T22:29:37.305Z,7.40
2023-05-02T22:32:06.598Z,7.40
2023-05-02T22:34:35.661Z,7.30
2023-05-02T22:37:04.628Z,7.40
2023-05-02T22:39:33.687Z,7.30
2023-05-02T22:42:03.392Z,7.30
2023-05-02T22:44:40.499Z,7.20
2023-05-02T22:47:16.061Z,7.30
2023-05-02T22:49:46.456Z,7.30
2023-05-02T22:52:18.530Z,7.20
2023-05-02T22:54:47.616Z,7.30
2023-05-02T22:57:16.578Z,7.20
2023-05-02T22:59:47.456Z,7.10
2023-05-02T23:02:16.522Z,7.00
2023-05-02T23:04:45.615Z,7.00
2023-05-02T23:07:14.632Z,7.00
2023-05-02T23:09:43.706Z,7.00
2023-05-02T23:12:12.972Z,7.00
2023-05-02T23:14:42.086Z,7.00
2023-05-02T23:17:12.723Z,6.90
2023-05-02T23:19:41.885Z,6.90
2023-05-02T23:22:10.868Z,6.80
2023-05-02T23:24:39.776Z,6.80
2023-05-02T23:27:08.810Z,6.70
2023-05-02T23:29:37.891Z,6.60
2023-05-02T23:32:08.304Z,6.70
2023-05-02T23:34:39.011Z,6.70
2023-05-02T23:37:08.455Z,6.70
2023-05-02T23:39:37.386Z,6.60
2023-05-02T23:42:06.568Z,6.50
2023-05-02T23:44:35.734Z,6.50
2023-05-02T23:47:04.944Z,6.50
2023-05-02T23:49:34.299Z,6.60
2023-05-02T23:52:06.001Z,6.70
2023-05-02T23:54:35.767Z,6.50
2023-05-02T23:57:04.894Z,6.40
2023-05-02T23:59:34.049Z,6.30
